Time;durP1;ratioP1;P1;durP2;ratioP2;P2;SDS_P1;SDS_P2;PMS_P1;PMS_P2;Temp;Humidity;BMP_temperature;BMP_pressure;BME280_temperature;BME280_humidity;BME280_pressure;Samples;Min_cycle;Max_cycle;Signal;HPM_P1;HPM_P2
2022/07/21 00:02:25;;;;;;;;;;;18.40;99.90;;;;;;5102869;28;20031;-71
2022/07/21 00:04:53;;;;;;;;;;;18.40;99.90;;;;;;5091892;28;19979;-71
2022/07/21 00:07:19;;;;;;;;;;;18.40;99.90;;;;;;5094389;28;20002;-72
2022/07/21 00:09:46;;;;;;;;;;;18.40;99.90;;;;;;5091751;28;20056;-71
2022/07/21 00:12:13;;;;;;;;;;;18.40;99.90;;;;;;5106698;28;20049;-71
2022/07/21 00:14:39;;;;;;;;;;;18.40;99.90;;;;;;5093751;28;19924;-71
2022/07/21 00:17:06;;;;;;;;;;;18.30;99.90;;;;;;5091854;28;20018;-71
2022/07/21 00:19:34;;;;;;;;;;;18.30;99.90;;;;;;5100930;28;20002;-71
2022/07/21 00:22:01;;;;;;;;;;;18.20;99.90;;;;;;5106159;28;20018;-71
2022/07/21 00:24:27;;;;;;;;;;;18.20;99.90;;;;;;5093351;28;19924;-71
2022/07/21 00:26:54;;;;;;;;;;;18.20;99.90;;;;;;5090627;28;20363;-71
2022/07/21 00:29:21;;;;;;;;;;;18.20;99.90;;;;;;5105541;28;20015;-71
2022/07/21 00:31:47;;;;;;;;;;;18.20;99.90;;;;;;5094530;28;20302;-72
2022/07/21 00:34:14;;;;;;;;;;;18.20;99.90;;;;;;5094022;28;19924;-72
2022/07/21 00:36:42;;;;;;;;;;;18.20;99.90;;;;;;5102293;28;20011;-72
2022/07/21 00:39:08;;;;;;;;;;;18.20;99.90;;;;;;5096782;28;19924;-72
2022/07/21 00:41:35;;;;;;;;;;;18.20;99.90;;;;;;5091107;28;19978;-72
2022/07/21 00:44:02;;;;;;;;;;;18.20;99.90;;;;;;5090255;28;20092;-72
2022/07/21 00:46:30;;;;;;;;;;;18.30;99.90;;;;;;5090879;28;19931;-72
2022/07/21 00:48:56;;;;;;;;;;;18.30;99.90;;;;;;5093129;28;19924;-72
2022/07/21 00:51:23;;;;;;;;;;;18.40;99.90;;;;;;5091146;28;20367;-72
2022/07/21 00:53:51;;;;;;;;;;;18.40;99.90;;;;;;5094514;28;20298;-72
2022/07/21 00:56:18;;;;;;;;;;;18.40;99.90;;;;;;5106226;28;19978;-72
2022/07/21 00:58:44;;;;;;;;;;;18.40;99.90;;;;;;5090733;28;20006;-72
2022/07/21 01:01:11;;;;;;;;;;;18.40;99.90;;;;;;5091859;28;20031;-73
2022/07/21 01:03:38;;;;;;;;;;;18.40;99.90;;;;;;5100658;28;19924;-73
2022/07/21 01:06:05;;;;;;;;;;;18.40;99.90;;;;;;5099862;27;19928;-73
2022/07/21 01:08:32;;;;;;;;;;;18.40;99.90;;;;;;5095749;28;19959;-74
2022/07/21 01:11:00;;;;;;;;;;;18.40;99.90;;;;;;5094754;28;20011;-73
2022/07/21 01:13:27;;;;;;;;;;;18.40;99.90;;;;;;5101102;27;19974;-72
2022/07/21 01:15:53;;;;;;;;;;;18.40;99.90;;;;;;5097008;28;20289;-72
2022/07/21 01:18:20;;;;;;;;;;;18.40;99.90;;;;;;5102677;27;20441;-71
2022/07/21 01:20:51;;;;;;;;;;;18.40;99.90;;;;;;5101666;27;19931;-72
2022/07/21 01:23:19;;;;;;;;;;;18.40;99.90;;;;;;5097727;27;20785;-71
2022/07/21 01:25:47;;;;;;;;;;;18.40;99.90;;;;;;5098271;28;20010;-71
2022/07/21 01:28:14;;;;;;;;;;;18.50;99.90;;;;;;5097737;27;19970;-72
2022/07/21 01:30:41;;;;;;;;;;;18.50;99.90;;;;;;5099814;27;20010;-71
2022/07/21 01:33:07;;;;;;;;;;;18.60;99.90;;;;;;5098521;27;19939;-71
2022/07/21 01:35:34;;;;;;;;;;;18.50;99.90;;;;;;5097261;27;20391;-71
2022/07/21 01:38:01;;;;;;;;;;;18.50;99.90;;;;;;5099850;27;19932;-70
2022/07/21 01:43:13;;;;;;;;;;;18.50;99.90;;;;;;5097409;27;19930;-71
2022/07/21 01:45:40;;;;;;;;;;;18.50;99.90;;;;;;5100598;27;20404;-71
2022/07/21 01:48:07;;;;;;;;;;;18.50;99.90;;;;;;5094222;27;19924;-71
2022/07/21 01:50:34;;;;;;;;;;;18.50;99.90;;;;;;5110282;27;20301;-72
2022/07/21 01:53:00;;;;;;;;;;;18.50;99.90;;;;;;5098794;27;20010;-71
2022/07/21 01:55:30;;;;;;;;;;;18.40;99.90;;;;;;5096061;28;20007;-71
2022/07/21 01:57:57;;;;;;;;;;;18.40;99.90;;;;;;5095647;27;20015;-71
2022/07/21 02:00:23;;;;;;;;;;;18.40;99.90;;;;;;5107518;28;19924;-71
2022/07/21 02:02:50;;;;;;;;;;;18.30;99.90;;;;;;5098378;27;20369;-70
2022/07/21 02:05:17;;;;;;;;;;;18.30;99.90;;;;;;5095326;27;19963;-71
2022/07/21 02:07:43;;;;;;;;;;;18.20;99.90;;;;;;5105795;27;19963;-70
2022/07/21 02:10:10;;;;;;;;;;;18.30;99.90;;;;;;5101540;28;20018;-71
2022/07/21 02:12:38;;;;;;;;;;;18.30;99.90;;;;;;5105301;27;20414;-70
2022/07/21 02:15:06;;;;;;;;;;;18.30;99.90;;;;;;5097829;27;20022;-71
2022/07/21 02:17:32;;;;;;;;;;;18.30;99.90;;;;;;5101532;28;20284;-71
2022/07/21 02:19:59;;;;;;;;;;;18.30;99.90;;;;;;5111286;28;19930;-71
2022/07/21 02:22:25;;;;;;;;;;;18.20;99.90;;;;;;5107695;27;20014;-71
2022/07/21 02:24:52;;;;;;;;;;;18.30;99.90;;;;;;5110171;27;19928;-71
2022/07/21 02:27:19;;;;;;;;;;;18.30;99.90;;;;;;5100898;28;19931;-71
2022/07/21 02:29:47;;;;;;;;;;;18.30;99.90;;;;;;5094502;27;19939;-71
2022/07/21 02:32:13;;;;;;;;;;;18.30;99.90;;;;;;5093599;27;19931;-71
2022/07/21 02:34:40;;;;;;;;;;;18.30;99.90;;;;;;5108117;27;19924;-71
2022/07/21 02:37:07;;;;;;;;;;;18.30;99.90;;;;;;5092418;28;20019;-71
2022/07/21 02:39:33;;;;;;;;;;;18.40;99.90;;;;;;5102235;27;20031;-70
2022/07/21 02:42:00;;;;;;;;;;;18.40;99.90;;;;;;5103047;27;20011;-70
2022/07/21 02:44:27;;;;;;;;;;;18.30;99.90;;;;;;5107287;27;20034;-70
2022/07/21 02:46:55;;;;;;;;;;;18.30;99.90;;;;;;5093837;28;19924;-70
2022/07/21 02:49:21;;;;;;;;;;;18.30;99.90;;;;;;5104467;27;20470;-70
2022/07/21 02:51:48;;;;;;;;;;;18.30;99.90;;;;;;5095023;28;19932;-69
2022/07/21 02:54:14;;;;;;;;;;;18.20;99.90;;;;;;5105775;27;19959;-71
2022/07/21 02:56:41;;;;;;;;;;;18.20;99.90;;;;;;5097472;27;19931;-70
2022/07/21 02:59:08;;;;;;;;;;;18.10;99.90;;;;;;5100729;28;20015;-70
2022/07/21 03:01:35;;;;;;;;;;;18.20;99.90;;;;;;5092532;28;19924;-71
2022/07/21 03:04:03;;;;;;;;;;;18.20;99.90;;;;;;5103818;28;19924;-69
2022/07/21 03:06:29;;;;;;;;;;;18.20;99.90;;;;;;5106995;27;20417;-69
2022/07/21 03:08:56;;;;;;;;;;;18.20;99.90;;;;;;5096762;28;19967;-70
2022/07/21 03:11:23;;;;;;;;;;;18.20;99.90;;;;;;5094414;27;19931;-69
2022/07/21 03:13:49;;;;;;;;;;;18.20;99.90;;;;;;5091995;28;20366;-70
2022/07/21 03:16:16;;;;;;;;;;;18.20;99.90;;;;;;5106747;27;20022;-70
2022/07/21 03:18:43;;;;;;;;;;;18.10;99.90;;;;;;5094980;27;19974;-71
2022/07/21 03:21:11;;;;;;;;;;;18.20;99.90;;;;;;5098690;27;19924;-70
2022/07/21 03:23:37;;;;;;;;;;;18.20;99.90;;;;;;5093988;28;19983;-70
2022/07/21 03:26:04;;;;;;;;;;;18.20;99.90;;;;;;5098609;28;20394;-70
2022/07/21 03:28:31;;;;;;;;;;;18.20;99.90;;;;;;5107035;28;19966;-71
2022/07/21 03:30:58;;;;;;;;;;;18.20;99.90;;;;;;5104057;27;19924;-70
2022/07/21 03:33:24;;;;;;;;;;;18.40;99.90;;;;;;5095216;27;20038;-70
2022/07/21 03:35:51;;;;;;;;;;;18.30;99.90;;;;;;5094188;28;20011;-70
2022/07/21 03:38:19;;;;;;;;;;;18.30;99.90;;;;;;5093078;27;19970;-71
2022/07/21 03:40:46;;;;;;;;;;;18.30;99.90;;;;;;5093569;28;19924;-71
2022/07/21 03:43:12;;;;;;;;;;;18.30;99.90;;;;;;5107817;28;20041;-71
2022/07/21 03:45:39;;;;;;;;;;;18.40;99.90;;;;;;5093339;28;20019;-71
2022/07/21 03:48:07;;;;;;;;;;;18.40;99.90;;;;;;5098339;27;20399;-70
2022/07/21 03:50:34;;;;;;;;;;;18.50;99.90;;;;;;5111188;28;19930;-70
2022/07/21 03:53:01;;;;;;;;;;;18.50;99.90;;;;;;5095781;28;19924;-70
2022/07/21 03:55:29;;;;;;;;;;;18.50;99.90;;;;;;5101261;28;20018;-70
2022/07/21 03:57:57;;;;;;;;;;;18.50;99.90;;;;;;5110835;28;19924;-70
2022/07/21 04:00:25;;;;;;;;;;;18.50;99.90;;;;;;5099378;28;19924;-70
2022/07/21 04:02:52;;;;;;;;;;;18.50;99.90;;;;;;5094660;28;20026;-71
2022/07/21 04:05:19;;;;;;;;;;;18.50;99.90;;;;;;5094102;28;19924;-70
2022/07/21 04:07:46;;;;;;;;;;;18.50;99.90;;;;;;5094388;28;19966;-70
2022/07/21 04:10:14;;;;;;;;;;;18.50;99.90;;;;;;5092820;27;19924;-70
2022/07/21 04:12:42;;;;;;;;;;;18.50;99.90;;;;;;5096279;28;19938;-70
2022/07/21 04:15:09;;;;;;;;;;;18.50;99.90;;;;;;5091191;28;20079;-70
2022/07/21 04:17:36;;;;;;;;;;;18.50;99.90;;;;;;5094033;28;20011;-71
2022/07/21 04:20:04;;;;;;;;;;;18.60;99.90;;;;;;5097893;27;20009;-70
2022/07/21 04:22:30;;;;;;;;;;;18.60;99.90;;;;;;5109902;28;19943;-71
2022/07/21 04:24:57;;;;;;;;;;;18.70;99.90;;;;;;5092302;28;20023;-71
2022/07/21 04:27:24;;;;;;;;;;;18.70;99.90;;;;;;5107107;28;19923;-70
2022/07/21 04:29:52;;;;;;;;;;;18.80;99.90;;;;;;5090173;28;19930;-71
2022/07/21 04:32:19;;;;;;;;;;;18.70;99.90;;;;;;5092216;27;19932;-70
2022/07/21 04:34:45;;;;;;;;;;;18.70;99.90;;;;;;5104036;28;19967;-71
2022/07/21 04:37:12;;;;;;;;;;;18.70;99.90;;;;;;5090939;28;20015;-71
2022/07/21 04:39:39;;;;;;;;;;;18.80;99.90;;;;;;5103704;28;19924;-70
2022/07/21 04:42:05;;;;;;;;;;;18.80;99.90;;;;;;5096579;28;19924;-70
2022/07/21 04:44:32;;;;;;;;;;;18.80;99.90;;;;;;5093200;28;20026;-70
2022/07/21 04:47:00;;;;;;;;;;;18.80;99.90;;;;;;5108287;28;20354;-70
2022/07/21 04:49:27;;;;;;;;;;;18.90;99.90;;;;;;5093811;28;19942;-71
2022/07/21 04:51:53;;;;;;;;;;;18.80;99.90;;;;;;5097450;28;19931;-70
2022/07/21 04:54:20;;;;;;;;;;;18.80;99.90;;;;;;5095715;28;19924;-71
2022/07/21 04:56:47;;;;;;;;;;;18.90;99.90;;;;;;5090935;28;20015;-71
2022/07/21 04:59:14;;;;;;;;;;;18.90;99.90;;;;;;5105070;28;20010;-71
2022/07/21 05:01:40;;;;;;;;;;;18.90;99.90;;;;;;5099187;28;19966;-69
2022/07/21 05:04:08;;;;;;;;;;;18.90;99.90;;;;;;5094198;28;19930;-69
2022/07/21 05:06:35;;;;;;;;;;;18.90;99.90;;;;;;5090342;28;19958;-69
2022/07/21 05:09:02;;;;;;;;;;;18.90;99.90;;;;;;5098592;28;20015;-71
2022/07/21 05:11:29;;;;;;;;;;;18.80;99.90;;;;;;5095356;28;19967;-70
2022/07/21 05:13:56;;;;;;;;;;;18.80;99.90;;;;;;5097639;28;19924;-70
2022/07/21 05:16:22;;;;;;;;;;;18.80;99.90;;;;;;5091632;28;20462;-70
2022/07/21 05:18:49;;;;;;;;;;;18.80;99.90;;;;;;5095196;28;19930;-70
2022/07/21 05:21:17;;;;;;;;;;;18.70;99.90;;;;;;5089330;28;19967;-71
2022/07/21 05:23:45;;;;;;;;;;;18.70;99.90;;;;;;5095285;28;20027;-70
2022/07/21 05:26:12;;;;;;;;;;;18.80;99.90;;;;;;5092113;28;19928;-70
2022/07/21 05:28:39;;;;;;;;;;;18.70;99.90;;;;;;5096706;28;20382;-70
2022/07/21 05:31:06;;;;;;;;;;;18.70;99.90;;;;;;5094619;28;20094;-69
2022/07/21 05:33:32;;;;;;;;;;;18.60;99.90;;;;;;5096829;28;20299;-69
2022/07/21 05:35:59;;;;;;;;;;;18.60;99.90;;;;;;5092715;28;20000;-71
2022/07/21 05:38:27;;;;;;;;;;;18.60;99.90;;;;;;5091341;28;19932;-71
2022/07/21 05:40:54;;;;;;;;;;;18.60;99.90;;;;;;5107607;28;20011;-70
2022/07/21 05:43:20;;;;;;;;;;;18.60;99.90;;;;;;5106904;28;20038;-70
2022/07/21 05:45:47;;;;;;;;;;;18.60;99.90;;;;;;5103861;28;20011;-70
2022/07/21 05:48:15;;;;;;;;;;;18.70;99.90;;;;;;5102214;28;20386;-69
2022/07/21 05:50:41;;;;;;;;;;;18.70;99.90;;;;;;5097294;28;20044;-70
2022/07/21 05:53:08;;;;;;;;;;;18.60;99.90;;;;;;5113614;28;20030;-70
2022/07/21 05:55:36;;;;;;;;;;;18.60;99.90;;;;;;5095011;28;20003;-71
2022/07/21 05:58:03;;;;;;;;;;;18.60;99.90;;;;;;5098153;27;19955;-71
2022/07/21 06:00:30;;;;;;;;;;;18.60;99.90;;;;;;5096157;27;19935;-69
2022/07/21 06:02:56;;;;;;;;;;;18.60;99.90;;;;;;5103505;27;19958;-69
2022/07/21 06:05:23;;;;;;;;;;;18.70;99.90;;;;;;5099339;28;20023;-70
2022/07/21 06:07:50;;;;;;;;;;;18.70;99.90;;;;;;5099932;28;19975;-69
2022/07/21 06:10:16;;;;;;;;;;;18.60;99.90;;;;;;5108509;27;20018;-69
2022/07/21 06:12:45;;;;;;;;;;;18.70;99.90;;;;;;5098679;28;19923;-69
2022/07/21 06:15:11;;;;;;;;;;;18.60;99.90;;;;;;5112980;27;20018;-69
2022/07/21 06:17:41;;;;;;;;;;;18.50;99.90;;;;;;5097026;27;20383;-69
2022/07/21 06:20:09;;;;;;;;;;;18.50;99.90;;;;;;5093479;28;19930;-67
2022/07/21 06:22:35;;;;;;;;;;;18.50;99.90;;;;;;5108852;28;20314;-68
2022/07/21 06:25:02;;;;;;;;;;;18.40;99.90;;;;;;5097777;27;19959;-68
2022/07/21 06:27:29;;;;;;;;;;;18.30;99.90;;;;;;5094013;28;20520;-68
2022/07/21 06:29:58;;;;;;;;;;;18.20;99.90;;;;;;5106597;27;19963;-68
2022/07/21 06:32:25;;;;;;;;;;;18.10;99.90;;;;;;5095993;28;19931;-68
2022/07/21 06:34:52;;;;;;;;;;;18.00;99.90;;;;;;5105113;27;20224;-68
2022/07/21 06:37:18;;;;;;;;;;;18.00;99.90;;;;;;5097581;28;20103;-69
2022/07/21 06:39:45;;;;;;;;;;;17.90;99.90;;;;;;5096832;27;20351;-69
2022/07/21 06:42:12;;;;;;;;;;;17.80;99.90;;;;;;5096482;27;20003;-69
2022/07/21 06:44:38;;;;;;;;;;;17.80;99.90;;;;;;5094143;28;19971;-69
2022/07/21 06:47:07;;;;;;;;;;;17.80;99.90;;;;;;5093907;28;19963;-69
2022/07/21 06:49:33;;;;;;;;;;;17.80;99.90;;;;;;5102370;27;20425;-69
2022/07/21 06:52:00;;;;;;;;;;;17.90;99.90;;;;;;5094674;28;20012;-70
2022/07/21 06:54:27;;;;;;;;;;;17.80;99.90;;;;;;5092753;28;19924;-69
2022/07/21 06:56:53;;;;;;;;;;;17.90;99.90;;;;;;5092914;28;21991;-69
2022/07/21 06:59:20;;;;;;;;;;;17.90;99.90;;;;;;5105054;27;20010;-69
2022/07/21 07:01:47;;;;;;;;;;;17.90;99.90;;;;;;5098051;27;19931;-69
2022/07/21 07:04:15;;;;;;;;;;;18.00;99.90;;;;;;5105882;28;20027;-69
2022/07/21 07:06:42;;;;;;;;;;;18.00;99.90;;;;;;5093262;28;20322;-69
2022/07/21 07:09:08;;;;;;;;;;;18.00;99.90;;;;;;5096010;27;20011;-69
2022/07/21 07:11:35;;;;;;;;;;;18.10;99.90;;;;;;5094188;27;19963;-70
2022/07/21 07:14:02;;;;;;;;;;;18.10;99.90;;;;;;5089049;27;20016;-70
2022/07/21 07:16:28;;;;;;;;;;;18.10;99.90;;;;;;5089941;27;19938;-69
2022/07/21 07:18:55;;;;;;;;;;;18.10;99.90;;;;;;5094303;28;19939;-69
2022/07/21 07:21:23;;;;;;;;;;;18.10;99.90;;;;;;5090874;28;20010;-69
2022/07/21 07:23:50;;;;;;;;;;;18.20;99.90;;;;;;5091345;28;20370;-71
2022/07/21 07:26:16;;;;;;;;;;;18.20;99.90;;;;;;5089983;27;20019;-71
2022/07/21 07:28:43;;;;;;;;;;;18.10;99.90;;;;;;5087276;28;20325;-71
2022/07/21 07:31:10;;;;;;;;;;;18.10;99.90;;;;;;5091833;27;19930;-71
2022/07/21 07:33:37;;;;;;;;;;;18.10;99.90;;;;;;5097023;28;20022;-70
2022/07/21 07:36:03;;;;;;;;;;;18.10;99.90;;;;;;5095756;27;19930;-71
2022/07/21 07:38:31;;;;;;;;;;;18.10;99.90;;;;;;5093641;27;19938;-71
2022/07/21 07:40:58;;;;;;;;;;;18.10;99.90;;;;;;5097755;27;20073;-71
2022/07/21 07:43:25;;;;;;;;;;;18.10;99.90;;;;;;5098551;28;20366;-71
2022/07/21 07:45:51;;;;;;;;;;;18.10;99.90;;;;;;5095333;27;20165;-70
2022/07/21 07:48:18;;;;;;;;;;;18.10;99.90;;;;;;5098649;28;20018;-70
2022/07/21 07:50:45;;;;;;;;;;;18.00;99.90;;;;;;5098600;28;20015;-72
2022/07/21 07:53:11;;;;;;;;;;;18.10;99.90;;;;;;5094144;27;19938;-71
2022/07/21 07:55:40;;;;;;;;;;;18.10;99.90;;;;;;5092544;27;19928;-71
2022/07/21 07:58:06;;;;;;;;;;;18.10;99.90;;;;;;5088681;27;19931;-72
2022/07/21 08:00:33;;;;;;;;;;;18.10;99.90;;;;;;5096865;27;20030;-71
2022/07/21 08:03:00;;;;;;;;;;;18.10;99.90;;;;;;5093901;27;19931;-70
2022/07/21 08:05:26;;;;;;;;;;;18.10;99.90;;;;;;5092382;27;20609;-70
2022/07/21 08:07:53;;;;;;;;;;;18.10;99.90;;;;;;5101489;28;19924;-71
2022/07/21 08:10:20;;;;;;;;;;;18.10;99.90;;;;;;5100418;28;20421;-72
2022/07/21 08:12:48;;;;;;;;;;;18.20;99.90;;;;;;5101163;28;20371;-71
2022/07/21 08:15:15;;;;;;;;;;;18.20;99.90;;;;;;5099306;28;20310;-71
2022/07/21 08:17:42;;;;;;;;;;;18.20;99.90;;;;;;5093802;28;20010;-72
2022/07/21 08:20:12;;;;;;;;;;;18.20;99.90;;;;;;5102518;28;20042;-72
2022/07/21 08:22:38;;;;;;;;;;;18.30;99.90;;;;;;5103780;28;19950;-72
2022/07/21 08:25:05;;;;;;;;;;;18.30;99.90;;;;;;5096358;28;20035;-72
2022/07/21 08:27:32;;;;;;;;;;;18.30;99.90;;;;;;5104296;28;19986;-74
2022/07/21 08:30:00;;;;;;;;;;;18.30;99.90;;;;;;5102855;28;19928;-72
2022/07/21 08:32:27;;;;;;;;;;;18.30;99.90;;;;;;5100676;28;19963;-72
2022/07/21 08:34:54;;;;;;;;;;;18.40;99.90;;;;;;5109522;28;20302;-72
2022/07/21 08:37:21;;;;;;;;;;;18.40;99.90;;;;;;5091480;28;19963;-72
2022/07/21 08:39:48;;;;;;;;;;;18.40;99.90;;;;;;5090348;28;19931;-73
2022/07/21 08:42:15;;;;;;;;;;;18.40;99.90;;;;;;5090306;28;19924;-74
2022/07/21 08:44:42;;;;;;;;;;;18.20;99.90;;;;;;5107641;28;19977;-72
2022/07/21 08:47:10;;;;;;;;;;;18.20;99.90;;;;;;5092759;28;20006;-74
2022/07/21 08:49:36;;;;;;;;;;;18.10;99.90;;;;;;5092358;28;19924;-72
2022/07/21 08:52:04;;;;;;;;;;;18.00;99.90;;;;;;5092060;28;19971;-72
2022/07/21 08:54:32;;;;;;;;;;;17.90;99.90;;;;;;5092076;28;19924;-74
2022/07/21 08:56:58;;;;;;;;;;;17.90;99.90;;;;;;5091146;28;19924;-73
2022/07/21 08:59:26;;;;;;;;;;;17.90;99.90;;;;;;5095625;28;19993;-74
2022/07/21 09:01:53;;;;;;;;;;;18.00;99.90;;;;;;5096018;28;19924;-74
2022/07/21 09:04:22;;;;;;;;;;;18.10;99.90;;;;;;5105566;28;19936;-74
2022/07/21 09:06:56;;;;;;;;;;;18.20;99.90;;;;;;5095422;28;19977;-74
2022/07/21 09:09:23;;;;;;;;;;;18.30;99.90;;;;;;5091123;28;20015;-75
2022/07/21 09:11:50;;;;;;;;;;;18.30;99.90;;;;;;5091317;28;20276;-74
2022/07/21 09:14:18;;;;;;;;;;;18.30;99.90;;;;;;5104469;28;19963;-74
2022/07/21 09:16:46;;;;;;;;;;;18.30;99.90;;;;;;5098845;28;20018;-73
2022/07/21 09:19:17;;;;;;;;;;;18.40;99.90;;;;;;5094878;28;20024;-74
2022/07/21 09:21:45;;;;;;;;;;;18.40;99.90;;;;;;5098205;28;20026;-73
2022/07/21 09:24:13;;;;;;;;;;;18.50;99.90;;;;;;5092896;28;19932;-73
2022/07/21 09:26:58;;;;;;;;;;;18.60;99.90;;;;;;5094736;28;20385;-72
2022/07/21 09:29:25;;;;;;;;;;;18.70;99.90;;;;;;5111336;27;20016;-75
2022/07/21 09:31:52;;;;;;;;;;;18.90;99.90;;;;;;5099114;28;19924;-75
2022/07/21 09:34:20;;;;;;;;;;;18.90;99.90;;;;;;5111638;28;19932;-73
2022/07/21 09:36:57;;;;;;;;;;;19.00;99.90;;;;;;5107245;28;19989;-73
2022/07/21 09:39:38;;;;;;;;;;;18.80;99.90;;;;;;5096768;28;19931;-74
2022/07/21 09:42:12;;;;;;;;;;;18.90;99.90;;;;;;5102728;28;19987;-74
2022/07/21 09:44:39;;;;;;;;;;;18.90;99.90;;;;;;5101020;27;20354;-74
2022/07/21 09:47:10;;;;;;;;;;;18.90;99.90;;;;;;5098977;28;19967;-74
2022/07/21 09:49:38;;;;;;;;;;;19.00;99.90;;;;;;5093785;28;19924;-73
2022/07/21 09:52:18;;;;;;;;;;;19.20;99.90;;;;;;5103076;28;20023;-73
2022/07/21 09:54:45;;;;;;;;;;;19.30;99.90;;;;;;5095053;28;19930;-72
2022/07/21 09:57:12;;;;;;;;;;;19.20;99.90;;;;;;5099645;28;19924;-73
2022/07/21 09:59:39;;;;;;;;;;;19.30;99.90;;;;;;5098935;28;19967;-74
2022/07/21 10:02:06;;;;;;;;;;;19.40;99.90;;;;;;5098668;28;19939;-74
2022/07/21 10:04:35;;;;;;;;;;;19.60;99.90;;;;;;5095418;28;19925;-74
2022/07/21 10:07:02;;;;;;;;;;;19.80;99.90;;;;;;5094104;28;20455;-74
2022/07/21 10:09:30;;;;;;;;;;;20.00;99.90;;;;;;5106450;28;19942;-71
2022/07/21 10:11:57;;;;;;;;;;;20.10;99.90;;;;;;5093874;27;20067;-72
2022/07/21 10:14:23;;;;;;;;;;;20.10;99.90;;;;;;5108235;28;20015;-71
2022/07/21 10:16:50;;;;;;;;;;;20.30;99.90;;;;;;5093557;28;19934;-71
2022/07/21 10:19:20;;;;;;;;;;;20.40;99.90;;;;;;5099303;27;20007;-71
2022/07/21 10:21:49;;;;;;;;;;;20.50;99.90;;;;;;5093170;28;20019;-71
2022/07/21 10:24:15;;;;;;;;;;;20.70;99.90;;;;;;5102792;27;20283;-71
2022/07/21 10:26:57;;;;;;;;;;;20.70;99.90;;;;;;5097763;28;20572;-71
2022/07/21 10:29:42;;;;;;;;;;;20.90;99.90;;;;;;5093137;28;20320;-71
2022/07/21 10:32:11;;;;;;;;;;;21.00;99.90;;;;;;5094415;27;20700;-72
2022/07/21 10:34:39;;;;;;;;;;;21.00;99.90;;;;;;5100497;27;20417;-72
2022/07/21 10:37:06;;;;;;;;;;;20.90;99.90;;;;;;5104826;27;20022;-74
2022/07/21 10:39:33;;;;;;;;;;;20.70;99.90;;;;;;5103972;27;19963;-72
2022/07/21 10:42:02;;;;;;;;;;;20.50;99.90;;;;;;5093359;27;19977;-72
2022/07/21 10:44:38;;;;;;;;;;;20.30;99.90;;;;;;5092858;27;19924;-73
2022/07/21 10:47:06;;;;;;;;;;;20.10;99.90;;;;;;5106179;28;19924;-70
2022/07/21 10:49:51;;;;;;;;;;;20.10;99.90;;;;;;5096725;28;19924;-72
2022/07/21 10:52:38;;;;;;;;;;;20.00;99.90;;;;;;5092458;28;20019;-73
2022/07/21 10:55:16;;;;;;;;;;;19.70;99.90;;;;;;5094119;27;19939;-72
2022/07/21 10:57:44;;;;;;;;;;;19.50;99.90;;;;;;5093509;28;19924;-72
2022/07/21 11:00:21;;;;;;;;;;;19.50;99.90;;;;;;5099746;27;19973;-69
2022/07/21 11:02:49;;;;;;;;;;;19.40;99.90;;;;;;5096022;27;20000;-70
2022/07/21 11:05:17;;;;;;;;;;;19.40;99.90;;;;;;5098251;27;19932;-71
2022/07/21 11:08:03;;;;;;;;;;;19.40;99.90;;;;;;5093712;27;19971;-71
2022/07/21 11:10:31;;;;;;;;;;;19.30;99.90;;;;;;5094936;27;19928;-72
2022/07/21 11:12:58;;;;;;;;;;;19.00;99.90;;;;;;5097895;27;20023;-71
2022/07/21 11:15:44;;;;;;;;;;;19.00;99.90;;;;;;5097055;27;19931;-71
2022/07/21 11:18:11;;;;;;;;;;;18.90;99.90;;;;;;5099221;27;20432;-72
2022/07/21 11:20:39;;;;;;;;;;;18.70;99.90;;;;;;5097033;28;19924;-71
2022/07/21 11:23:05;;;;;;;;;;;18.60;99.90;;;;;;5103770;28;20003;-71
2022/07/21 11:25:34;;;;;;;;;;;18.60;99.90;;;;;;5101135;27;19931;-71
2022/07/21 11:28:01;;;;;;;;;;;18.70;99.90;;;;;;5098572;27;20417;-72
2022/07/21 11:30:28;;;;;;;;;;;18.80;99.90;;;;;;5095793;28;19981;-71
2022/07/21 11:32:55;;;;;;;;;;;18.90;99.90;;;;;;5100980;28;19931;-71
2022/07/21 11:35:22;;;;;;;;;;;18.80;99.90;;;;;;5093237;28;19948;-70
2022/07/21 11:37:51;;;;;;;;;;;18.80;99.90;;;;;;5095773;28;20001;-72
2022/07/21 11:40:18;;;;;;;;;;;18.80;99.90;;;;;;5101178;28;21379;-71
2022/07/21 11:42:46;;;;;;;;;;;18.90;99.90;;;;;;5097972;28;20256;-72
2022/07/21 11:45:14;;;;;;;;;;;18.90;99.90;;;;;;5083172;28;20352;-71
2022/07/21 11:47:40;;;;;;;;;;;18.70;99.90;;;;;;5091785;27;19924;-71
2022/07/21 11:50:08;;;;;;;;;;;18.60;99.90;;;;;;5107574;28;19928;-71
2022/07/21 11:52:36;;;;;;;;;;;18.50;99.90;;;;;;5092314;28;20276;-71
2022/07/21 11:55:06;;;;;;;;;;;18.40;99.90;;;;;;5091639;28;20356;-72
2022/07/21 11:57:33;;;;;;;;;;;18.40;99.90;;;;;;5092280;28;19928;-70
2022/07/21 12:00:00;;;;;;;;;;;18.50;99.90;;;;;;5105827;28;20321;-72
2022/07/21 12:02:27;;;;;;;;;;;18.50;99.90;;;;;;5104456;28;20030;-71
2022/07/21 12:04:55;;;;;;;;;;;18.50;99.90;;;;;;5106383;28;19927;-70
2022/07/21 12:07:23;;;;;;;;;;;18.70;99.90;;;;;;5090891;28;19939;-71
2022/07/21 12:09:50;;;;;;;;;;;18.80;99.90;;;;;;5092643;28;20484;-74
2022/07/21 12:12:29;;;;;;;;;;;18.60;99.90;;;;;;5109647;28;19924;-71
2022/07/21 12:14:56;;;;;;;;;;;18.70;99.90;;;;;;5070663;28;19932;-72
2022/07/21 12:17:34;;;;;;;;;;;18.60;99.90;;;;;;5084500;28;20403;-72
2022/07/21 12:20:05;;;;;;;;;;;18.70;99.90;;;;;;5071775;28;20121;-71
2022/07/21 12:22:39;;;;;;;;;;;18.70;99.90;;;;;;5070854;28;19978;-72
2022/07/21 12:25:07;;;;;;;;;;;18.70;99.90;;;;;;5071454;28;20007;-71
2022/07/21 12:27:36;;;;;;;;;;;18.60;99.90;;;;;;5075361;28;19931;-71
2022/07/21 12:30:03;;;;;;;;;;;18.60;99.90;;;;;;5073883;28;19924;-70
2022/07/21 12:32:40;;;;;;;;;;;18.50;99.90;;;;;;5072590;28;19929;-71
2022/07/21 12:35:16;;;;;;;;;;;18.70;99.90;;;;;;5075971;28;20023;-72
2022/07/21 12:38:00;;;;;;;;;;;18.60;99.90;;;;;;5075053;28;19985;-70
2022/07/21 12:40:28;;;;;;;;;;;18.60;99.90;;;;;;5071547;28;19977;-70
2022/07/21 12:43:06;;;;;;;;;;;18.80;99.90;;;;;;5083260;28;20045;-70
2022/07/21 12:45:44;;;;;;;;;;;19.00;99.90;;;;;;5078911;28;19928;-72
2022/07/21 12:48:12;;;;;;;;;;;19.50;99.90;;;;;;5069653;28;19936;-72
2022/07/21 12:50:39;;;;;;;;;;;19.80;99.90;;;;;;5072389;28;19924;-71
2022/07/21 12:53:06;;;;;;;;;;;20.00;99.90;;;;;;5074797;28;19932;-71
2022/07/21 12:55:33;;;;;;;;;;;19.90;99.90;;;;;;5071271;28;20006;-71
2022/07/21 12:58:00;;;;;;;;;;;19.80;99.90;;;;;;5075709;28;19928;-70
2022/07/21 13:00:28;;;;;;;;;;;19.50;99.90;;;;;;5074872;28;20011;-70
2022/07/21 13:02:55;;;;;;;;;;;19.60;99.90;;;;;;5078373;28;20333;-71
2022/07/21 13:05:23;;;;;;;;;;;19.30;99.90;;;;;;5086158;28;19966;-69
2022/07/21 13:07:50;;;;;;;;;;;19.10;99.90;;;;;;5077234;28;19932;-70
2022/07/21 13:10:17;;;;;;;;;;;19.00;99.90;;;;;;5080209;28;19924;-71
2022/07/21 13:12:44;;;;;;;;;;;19.00;99.90;;;;;;5074423;28;20288;-70
2022/07/21 13:15:11;;;;;;;;;;;19.00;99.90;;;;;;5082446;28;20023;-70
2022/07/21 13:17:39;;;;;;;;;;;18.80;99.90;;;;;;5083089;28;19970;-70
2022/07/21 13:20:06;;;;;;;;;;;18.90;99.90;;;;;;5073199;28;20142;-71
2022/07/21 13:22:33;;;;;;;;;;;18.90;99.90;;;;;;5075210;28;19930;-71
2022/07/21 13:25:00;;;;;;;;;;;19.00;99.90;;;;;;5077904;28;19979;-70
2022/07/21 13:27:27;;;;;;;;;;;19.00;99.90;;;;;;5075169;28;19963;-71
2022/07/21 13:29:53;;;;;;;;;;;19.10;99.90;;;;;;5085473;28;19975;-71
2022/07/21 13:32:20;;;;;;;;;;;19.20;99.90;;;;;;5074500;28;19971;-70
2022/07/21 13:34:48;;;;;;;;;;;19.40;99.90;;;;;;5077522;28;19964;-70
2022/07/21 13:37:15;;;;;;;;;;;19.50;99.90;;;;;;5081135;28;20071;-71
2022/07/21 13:39:42;;;;;;;;;;;19.70;99.90;;;;;;5091015;28;19967;-71
2022/07/21 13:42:08;;;;;;;;;;;19.80;99.90;;;;;;5091768;28;19966;-70
2022/07/21 13:44:35;;;;;;;;;;;19.80;99.90;;;;;;5075576;28;20220;-71
2022/07/21 13:47:02;;;;;;;;;;;19.80;99.90;;;;;;5075459;28;20346;-71
2022/07/21 13:49:29;;;;;;;;;;;19.70;99.90;;;;;;5090577;28;19969;-72
2022/07/21 13:51:57;;;;;;;;;;;19.60;99.90;;;;;;5092317;28;20014;-71
2022/07/21 13:54:24;;;;;;;;;;;19.60;99.90;;;;;;5092554;28;20012;-71
2022/07/21 13:56:51;;;;;;;;;;;19.70;99.90;;;;;;5077018;28;19928;-71
2022/07/21 13:59:18;;;;;;;;;;;19.60;99.90;;;;;;5078648;28;20019;-71
2022/07/21 14:01:45;;;;;;;;;;;19.60;99.90;;;;;;5084140;28;19931;-72
2022/07/21 14:04:12;;;;;;;;;;;19.60;99.90;;;;;;5089773;28;20307;-70
2022/07/21 14:06:39;;;;;;;;;;;19.40;99.90;;;;;;5084341;28;20293;-72
2022/07/21 14:09:07;;;;;;;;;;;19.40;99.90;;;;;;5083892;28;19925;-72
2022/07/21 14:11:35;;;;;;;;;;;19.40;99.90;;;;;;5075376;28;20302;-71
2022/07/21 14:14:02;;;;;;;;;;;19.30;99.90;;;;;;5072955;28;19928;-71
2022/07/21 14:16:29;;;;;;;;;;;19.20;99.90;;;;;;5079621;28;19978;-71
2022/07/21 14:18:55;;;;;;;;;;;19.20;99.90;;;;;;5087766;28;20011;-71
2022/07/21 14:21:22;;;;;;;;;;;19.20;99.90;;;;;;5081418;28;19931;-70
2022/07/21 14:25:17;;;;;;;;;;;19.00;99.90;;;;;;5081269;28;20027;-70